createdAt,value
2018-05-25T18:01:05.377Z,99319.82
2018-05-25T18:01:28.666Z,99318.08
2018-05-25T18:04:52.156Z,99211.08
2018-05-25T18:05:15.490Z,99209.01
2018-05-25T18:05:38.848Z,99202.95
2018-05-25T18:06:02.212Z,99201.56
2018-05-25T18:06:25.624Z,99202.52
2018-05-25T18:06:50.186Z,99203.47
2018-05-25T18:11:53.612Z,99222.79
2018-05-25T18:16:57.023Z,99234.50
2018-05-25T18:22:00.489Z,99225.96
2018-05-25T18:27:05.283Z,99234.33
2018-05-25T18:32:09.044Z,99239.78
2018-05-25T18:37:12.468Z,99237.56
2018-05-25T18:42:16.620Z,99240.02
2018-05-25T18:47:20.057Z,99240.72
2018-05-25T18:52:24.267Z,99248.28
2018-05-25T18:57:27.680Z,99254.23
2018-05-25T19:02:31.224Z,99262.47
2018-05-25T19:07:34.619Z,99265.16
2018-05-25T19:12:38.002Z,99278.26
2018-05-25T19:17:42.174Z,99275.80
2018-05-25T19:22:48.056Z,99285.50
2018-05-25T19:27:51.509Z,99289.74
2018-05-25T19:32:55.350Z,99297.66
2018-05-25T19:37:59.166Z,99296.25
2018-05-25T19:43:02.964Z,99307.47
2018-05-25T19:48:07.320Z,99311.64
2018-05-25T19:53:11.208Z,99316.91
2018-05-25T19:58:14.855Z,99315.70
2018-05-25T20:03:18.241Z,99324.89
2018-05-25T20:08:22.414Z,99329.69
2018-05-25T20:13:26.702Z,99328.68
2018-05-25T20:18:30.202Z,99326.55
2018-05-25T20:23:33.596Z,99334.59
2018-05-25T20:28:39.336Z,99329.17
2018-05-25T20:33:43.179Z,99331.20
2018-05-25T20:38:46.992Z,99325.20
2018-05-25T20:43:51.208Z,99325.98
2018-05-25T20:48:54.710Z,99318.95
2018-05-25T20:53:58.094Z,99314.83
2018-05-25T20:59:01.514Z,99315.82
2018-05-25T21:04:05.303Z,99316.23
2018-05-25T21:09:08.748Z,99326.70
2018-05-25T21:14:12.182Z,99327.52
2018-05-25T21:19:15.574Z,99334.25
2018-05-25T21:24:19.392Z,99330.30
2018-05-25T21:29:23.546Z,99325.26
2018-05-25T21:39:45.382Z,99330.81
2018-05-25T21:44:49.225Z,99331.61
2018-05-25T21:49:53.047Z,99339.40
2018-05-25T21:54:56.452Z,99343.78
2018-05-25T22:00:00.616Z,99341.36
2018-05-25T22:05:04.061Z,99340.83
2018-05-25T22:10:07.444Z,99347.78
2018-05-25T22:15:10.860Z,99358.80
2018-05-25T22:20:14.235Z,99361.20
2018-05-25T22:25:17.669Z,99369.64
2018-05-25T22:30:23.833Z,99374.70
2018-05-25T22:35:27.684Z,99386.16
2018-05-25T22:40:31.880Z,99380.96
2018-05-25T22:45:52.869Z,99379.03
2018-05-25T22:51:14.276Z,99384.19
2018-05-25T22:56:17.666Z,99385.95
2018-05-25T23:01:21.440Z,99385.86
2018-05-25T23:06:25.959Z,99381.52
2018-05-25T23:11:29.788Z,99377.66
2018-05-25T23:16:33.676Z,99381.75
2018-05-25T23:21:39.599Z,99387.92
2018-05-25T23:26:43.119Z,99379.71
2018-05-25T23:31:48.187Z,99379.84
2018-05-25T23:36:52.481Z,99386.33
2018-05-25T23:41:56.410Z,99383.36
2018-05-25T23:46:59.998Z,99382.00
2018-05-25T23:52:03.440Z,99387.12
2018-05-25T23:57:07.280Z,99394.15
